createdAt,value
2023-11-30T00:01:01.451Z,26.83
2023-11-30T00:03:44.610Z,25.33
2023-11-30T00:06:18.087Z,24.63
2023-11-30T00:08:52.030Z,26.00
2023-11-30T00:11:25.463Z,24.13
2023-11-30T00:13:58.671Z,24.80
2023-11-30T00:16:31.866Z,26.07
2023-11-30T00:19:06.595Z,24.53
2023-11-30T00:21:39.443Z,26.70
2023-11-30T00:24:12.682Z,26.80
2023-11-30T00:26:46.325Z,25.37
2023-11-30T00:29:19.621Z,25.80
2023-11-30T00:31:52.836Z,25.60
2023-11-30T00:34:26.218Z,26.07
2023-11-30T00:36:59.408Z,28.23
2023-11-30T00:39:32.641Z,31.57
2023-11-30T00:42:08.062Z,30.87
2023-11-30T00:44:41.461Z,32.50
2023-11-30T00:47:14.536Z,31.90
2023-11-30T00:49:47.614Z,33.93
2023-11-30T00:52:20.638Z,33.30
2023-11-30T00:54:53.697Z,30.40
2023-11-30T00:57:26.766Z,32.53
2023-11-30T01:00:02.082Z,32.75
2023-11-30T01:02:35.395Z,33.60
2023-11-30T01:05:09.576Z,33.03
2023-11-30T01:07:42.719Z,28.93
2023-11-30T01:10:15.957Z,32.63
2023-11-30T01:12:49.525Z,30.07
2023-11-30T01:15:22.965Z,26.97
2023-11-30T01:17:56.048Z,29.80
2023-11-30T01:20:29.683Z,27.80
2023-11-30T01:23:03.776Z,28.87
2023-11-30T01:25:36.962Z,29.70
2023-11-30T01:28:10.599Z,25.33
2023-11-30T01:30:43.752Z,27.57
2023-11-30T01:33:16.868Z,25.00
2023-11-30T01:35:51.006Z,27.20
2023-11-30T01:38:24.347Z,29.17
2023-11-30T01:40:58.352Z,25.33
2023-11-30T01:43:31.123Z,26.43
2023-11-30T01:46:04.873Z,26.43
2023-11-30T01:48:38.182Z,25.90
2023-11-30T01:51:13.545Z,23.90
2023-11-30T01:53:46.841Z,26.63
2023-11-30T01:56:21.085Z,26.63
2023-11-30T01:58:54.883Z,26.85
2023-11-30T02:01:29.300Z,28.23
2023-11-30T02:04:10.603Z,25.57
2023-11-30T02:06:47.576Z,24.70
2023-11-30T02:09:20.877Z,26.07
2023-11-30T02:11:54.877Z,29.30
2023-11-30T02:14:28.040Z,31.30
2023-11-30T02:17:01.857Z,26.23
2023-11-30T02:19:35.505Z,25.60
2023-11-30T02:22:08.683Z,25.83
2023-11-30T02:24:41.690Z,27.87
2023-11-30T02:27:14.727Z,27.63
2023-11-30T02:29:48.004Z,27.10
2023-11-30T02:32:21.196Z,27.97
2023-11-30T02:34:54.552Z,28.67
2023-11-30T02:37:27.709Z,25.47
2023-11-30T02:40:01.385Z,26.43
2023-11-30T02:42:34.264Z,28.63
2023-11-30T02:45:09.079Z,27.37
2023-11-30T02:47:41.985Z,30.90
2023-11-30T02:50:16.149Z,31.47
2023-11-30T02:52:49.430Z,29.83
2023-11-30T02:55:23.393Z,30.47
2023-11-30T02:57:56.195Z,31.07
2023-11-30T03:00:29.510Z,28.43
2023-11-30T03:03:03.376Z,30.87
2023-11-30T03:05:37.081Z,30.63
2023-11-30T03:08:11.171Z,33.03
2023-11-30T03:10:44.422Z,32.90
2023-11-30T03:13:17.753Z,31.33
2023-11-30T03:15:51.398Z,33.10
2023-11-30T03:18:24.362Z,31.23
2023-11-30T03:20:57.820Z,32.00
2023-11-30T03:23:32.073Z,34.37
2023-11-30T03:26:05.747Z,31.10
2023-11-30T03:28:39.344Z,27.90
2023-11-30T03:31:12.680Z,29.70
2023-11-30T03:33:45.897Z,32.03
2023-11-30T03:36:19.425Z,31.77
2023-11-30T03:38:55.513Z,33.33
2023-11-30T03:41:28.910Z,31.60
2023-11-30T03:44:01.960Z,31.60
2023-11-30T03:46:35.324Z,32.73
2023-11-30T03:49:08.378Z,32.50
2023-11-30T03:51:41.988Z,30.57
2023-11-30T03:54:15.622Z,30.87
2023-11-30T03:56:49.755Z,33.40
2023-11-30T03:59:22.748Z,27.90
2023-11-30T04:01:57.076Z,29.07
2023-11-30T04:04:30.827Z,33.27
2023-11-30T04:07:04.604Z,28.33
2023-11-30T04:09:40.218Z,30.27
2023-11-30T04:12:13.448Z,30.20
2023-11-30T04:14:46.899Z,30.20
2023-11-30T04:17:20.278Z,29.87
2023-11-30T04:19:53.414Z,30.73
2023-11-30T04:22:26.637Z,30.17
2023-11-30T04:24:59.602Z,33.30
2023-11-30T04:27:32.674Z,31.70
2023-11-30T04:30:07.019Z,29.07
2023-11-30T04:32:40.411Z,35.83
2023-11-30T04:35:14.411Z,31.07
2023-11-30T04:37:47.385Z,30.93
2023-11-30T04:40:21.204Z,31.47
2023-11-30T04:42:53.882Z,29.90
2023-11-30T04:45:27.078Z,30.97
2023-11-30T04:48:00.267Z,30.23
2023-11-30T04:50:33.840Z,32.50
2023-11-30T04:53:08.029Z,34.10
2023-11-30T04:55:41.306Z,32.53
2023-11-30T04:58:15.311Z,32.13
2023-11-30T05:00:49.396Z,35.00
2023-11-30T05:03:23.053Z,31.57
2023-11-30T05:05:56.439Z,30.43
2023-11-30T05:08:29.705Z,33.90
2023-11-30T05:11:03.326Z,34.27
2023-11-30T05:13:36.513Z,33.10
2023-11-30T05:16:11.643Z,30.30
2023-11-30T05:18:44.749Z,27.53
2023-11-30T05:21:18.752Z,33.20
2023-11-30T05:23:53.515Z,32.80
2023-11-30T05:26:26.757Z,33.47
2023-11-30T05:29:00.220Z,35.53
2023-11-30T05:31:33.593Z,40.07
2023-11-30T05:34:06.939Z,34.00
2023-11-30T05:36:40.329Z,36.70
2023-11-30T05:39:16.790Z,36.33
2023-11-30T05:41:50.002Z,37.00
2023-11-30T05:44:23.177Z,32.57
2023-11-30T05:46:56.575Z,34.47
2023-11-30T05:49:29.980Z,41.27
2023-11-30T05:52:03.773Z,44.47
2023-11-30T05:54:37.240Z,38.60
2023-11-30T05:57:11.280Z,38.93
2023-11-30T05:59:44.252Z,33.27
2023-11-30T06:02:19.062Z,30.53
2023-11-30T06:04:55.938Z,29.67
2023-11-30T06:07:30.903Z,30.37
2023-11-30T06:10:04.912Z,31.53
2023-11-30T06:12:38.068Z,30.47
2023-11-30T06:15:13.754Z,32.93
2023-11-30T06:17:46.727Z,34.47
2023-11-30T06:20:19.936Z,32.20
2023-11-30T06:22:53.017Z,31.37
2023-11-30T06:25:26.083Z,32.27
2023-11-30T06:27:58.907Z,35.27
2023-11-30T06:30:32.385Z,33.57
2023-11-30T06:33:05.764Z,33.20
2023-11-30T06:35:38.945Z,29.63
2023-11-30T06:38:13.071Z,29.90
2023-11-30T06:40:46.074Z,32.27
2023-11-30T06:43:19.145Z,36.13
2023-11-30T06:45:52.421Z,34.30
2023-11-30T06:48:26.860Z,34.03
2023-11-30T06:50:59.933Z,36.17
2023-11-30T06:53:32.807Z,33.97
2023-11-30T06:56:07.492Z,32.50
2023-11-30T06:58:40.620Z,37.07
2023-11-30T07:01:14.030Z,31.80
2023-11-30T07:03:47.887Z,33.07
2023-11-30T07:06:22.135Z,32.50
2023-11-30T07:08:55.326Z,30.50
2023-11-30T07:11:28.216Z,32.33
2023-11-30T07:14:02.078Z,31.90
2023-11-30T07:16:35.495Z,35.00
2023-11-30T07:19:09.001Z,34.47
2023-11-30T07:21:41.767Z,39.87
2023-11-30T07:24:15.204Z,35.27
2023-11-30T07:26:50.089Z,40.40
2023-11-30T07:29:26.417Z,38.67
2023-11-30T07:32:00.078Z,42.47
2023-11-30T07:34:33.672Z,41.57
2023-11-30T07:37:07.163Z,39.77
2023-11-30T07:39:40.710Z,42.30
2023-11-30T07:42:26.138Z,41.33
2023-11-30T07:45:06.298Z,40.87
2023-11-30T07:47:39.321Z,39.87
2023-11-30T07:50:17.528Z,42.97
2023-11-30T07:52:50.780Z,44.87
2023-11-30T07:55:23.973Z,41.00
2023-11-30T07:57:56.950Z,41.43
2023-11-30T08:00:30.574Z,46.43
2023-11-30T08:03:05.130Z,43.37
2023-11-30T08:05:38.409Z,45.97
2023-11-30T08:08:11.758Z,42.70
2023-11-30T08:10:44.929Z,43.43
2023-11-30T08:13:17.794Z,44.27
2023-11-30T08:15:51.273Z,40.17
2023-11-30T08:18:26.437Z,41.77
2023-11-30T08:21:02.178Z,44.67
2023-11-30T08:23:37.658Z,43.23
2023-11-30T08:26:13.075Z,41.37
2023-11-30T08:28:47.447Z,47.10
2023-11-30T08:31:20.790Z,40.90
2023-11-30T08:33:54.164Z,38.23
2023-11-30T08:36:27.524Z,44.23
2023-11-30T08:39:00.737Z,37.07
2023-11-30T08:41:34.362Z,41.33
2023-11-30T08:44:08.107Z,39.03
2023-11-30T08:46:41.233Z,41.33
2023-11-30T08:49:14.669Z,38.03
2023-11-30T08:51:48.550Z,37.17
2023-11-30T08:54:22.515Z,37.27
2023-11-30T08:56:55.584Z,39.07
2023-11-30T08:59:28.657Z,37.80
2023-11-30T09:02:01.965Z,35.87
2023-11-30T09:04:35.353Z,37.00
2023-11-30T09:07:08.833Z,38.97
2023-11-30T09:09:45.303Z,39.97
2023-11-30T09:12:20.628Z,40.03
2023-11-30T09:14:53.819Z,37.97
2023-11-30T09:17:26.584Z,36.80
2023-11-30T09:19:59.833Z,36.63
2023-11-30T09:22:34.327Z,41.07
2023-11-30T09:25:09.240Z,43.27
2023-11-30T09:27:44.163Z,35.15
2023-11-30T09:30:19.149Z,35.87
2023-11-30T09:32:54.344Z,37.70
2023-11-30T09:35:27.321Z,36.70
2023-11-30T09:38:01.215Z,37.67
2023-11-30T09:40:35.807Z,37.17
2023-11-30T09:43:10.121Z,34.73
2023-11-30T09:45:44.320Z,35.97
2023-11-30T09:48:18.465Z,35.73
2023-11-30T09:50:53.428Z,36.33
2023-11-30T09:53:27.471Z,37.43
2023-11-30T09:56:01.098Z,40.10
2023-11-30T09:58:34.876Z,38.40
2023-11-30T10:01:10.269Z,38.43
2023-11-30T10:03:43.650Z,36.33
2023-11-30T10:06:17.347Z,36.70
2023-11-30T10:08:50.459Z,35.93
2023-11-30T10:11:23.558Z,35.03
2023-11-30T10:13:58.438Z,32.47
2023-11-30T10:16:33.277Z,32.13
2023-11-30T10:19:08.747Z,31.63
2023-11-30T10:21:43.312Z,28.80
2023-11-30T10:24:16.482Z,31.97
2023-11-30T10:26:53.737Z,30.40
2023-11-30T10:29:32.053Z,30.13
2023-11-30T10:32:08.880Z,33.87
2023-11-30T10:34:49.511Z,30.23
2023-11-30T10:37:25.062Z,29.43
2023-11-30T10:40:04.538Z,56.07
2023-11-30T10:42:38.950Z,29.33
2023-11-30T10:45:14.648Z,25.37
2023-11-30T10:47:48.381Z,25.55
2023-11-30T10:50:22.646Z,26.40
2023-11-30T10:52:57.196Z,26.73
2023-11-30T10:55:31.223Z,27.00
2023-11-30T10:58:10.036Z,28.93
2023-11-30T11:00:43.870Z,27.47
2023-11-30T11:03:18.681Z,28.47
2023-11-30T11:05:54.371Z,29.10
2023-11-30T11:08:29.560Z,27.87
2023-11-30T11:11:12.186Z,31.80
2023-11-30T11:13:51.189Z,34.17
2023-11-30T11:16:34.658Z,29.63
2023-11-30T11:19:10.145Z,29.30
2023-11-30T11:21:44.511Z,31.57
2023-11-30T11:24:26.714Z,29.27
2023-11-30T11:27:00.868Z,29.87
2023-11-30T11:29:42.244Z,32.17
2023-11-30T11:32:19.367Z,29.17
2023-11-30T11:34:54.508Z,27.73
2023-11-30T11:37:27.986Z,26.60
2023-11-30T11:40:04.883Z,29.85
2023-11-30T11:42:38.644Z,28.50
2023-11-30T11:45:15.812Z,27.63
2023-11-30T11:47:52.479Z,29.50
2023-11-30T11:50:26.440Z,27.13
2023-11-30T11:53:05.172Z,27.67
2023-11-30T11:55:39.897Z,28.93
2023-11-30T11:58:15.799Z,27.67
2023-11-30T12:00:57.316Z,27.47
2023-11-30T12:03:31.004Z,26.83
2023-11-30T12:06:05.045Z,28.75
2023-11-30T12:08:38.937Z,28.43
2023-11-30T12:11:13.450Z,31.47
2023-11-30T12:13:46.952Z,31.07
2023-11-30T12:16:20.333Z,31.40
2023-11-30T12:18:54.037Z,31.27
2023-11-30T12:21:27.878Z,28.20
2023-11-30T12:24:01.514Z,28.47
2023-11-30T12:26:35.022Z,29.07
2023-11-30T12:29:09.258Z,31.60
2023-11-30T12:31:43.210Z,29.10
2023-11-30T12:34:17.519Z,31.40
2023-11-30T12:36:52.946Z,28.23
2023-11-30T12:39:26.585Z,29.10
2023-11-30T12:42:03.560Z,30.60
2023-11-30T12:44:37.813Z,31.83
2023-11-30T12:47:11.622Z,28.93
2023-11-30T12:49:45.513Z,29.13
2023-11-30T12:52:22.228Z,29.17
2023-11-30T12:54:56.425Z,28.57
2023-11-30T12:57:29.814Z,27.27
2023-11-30T13:00:03.778Z,26.57
2023-11-30T13:02:37.157Z,27.87
2023-11-30T13:05:11.204Z,29.67
2023-11-30T13:07:44.824Z,31.83
2023-11-30T13:10:20.359Z,29.73
2023-11-30T13:12:56.721Z,27.67
2023-11-30T13:15:30.167Z,30.17
2023-11-30T13:18:03.578Z,30.63
2023-11-30T13:20:37.148Z,30.10
2023-11-30T13:23:10.811Z,36.03
2023-11-30T13:25:44.229Z,30.10
2023-11-30T13:28:17.814Z,30.60
2023-11-30T13:30:51.113Z,32.57
2023-11-30T13:33:25.308Z,31.33
2023-11-30T13:35:59.236Z,31.23
2023-11-30T13:38:33.680Z,32.77
2023-11-30T13:41:07.979Z,30.93
2023-11-30T13:43:41.880Z,35.47
2023-11-30T13:46:17.048Z,33.33
2023-11-30T13:48:50.577Z,31.67
2023-11-30T13:51:24.417Z,33.27
2023-11-30T13:53:57.778Z,28.60
2023-11-30T13:56:31.507Z,31.47
2023-11-30T13:59:04.794Z,33.17
2023-11-30T14:01:38.458Z,31.17
2023-11-30T14:04:13.192Z,36.30
2023-11-30T14:06:50.635Z,36.40
2023-11-30T14:09:28.224Z,34.00
2023-11-30T14:12:01.777Z,35.03
2023-11-30T14:14:37.254Z,32.23
2023-11-30T14:17:12.005Z,33.40
2023-11-30T14:19:47.074Z,31.40
2023-11-30T14:22:22.210Z,29.87
2023-11-30T14:24:55.218Z,32.90
2023-11-30T14:27:29.183Z,31.80
2023-11-30T14:30:02.549Z,31.73
2023-11-30T14:32:36.717Z,32.93
2023-11-30T14:35:13.285Z,36.03
2023-11-30T14:37:46.974Z,39.07
2023-11-30T14:40:20.385Z,37.70
2023-11-30T14:42:54.448Z,35.83
2023-11-30T14:45:28.311Z,35.77
2023-11-30T14:48:01.966Z,42.43
2023-11-30T14:50:36.479Z,47.60
2023-11-30T14:53:10.353Z,48.40
2023-11-30T14:55:44.708Z,52.97
2023-11-30T14:58:18.171Z,63.55
2023-11-30T15:00:52.050Z,90.03
2023-11-30T15:03:25.922Z,99.07
2023-11-30T15:05:59.483Z,106.70
2023-11-30T15:08:32.997Z,117.00
2023-11-30T15:11:07.381Z,104.43
2023-11-30T15:13:41.412Z,93.77
2023-11-30T15:16:15.139Z,82.20
2023-11-30T15:18:48.756Z,70.37
2023-11-30T15:21:22.235Z,65.00
2023-11-30T15:23:55.739Z,60.77
2023-11-30T15:26:29.737Z,58.40
2023-11-30T15:29:03.466Z,60.40
2023-11-30T15:31:37.703Z,63.80
2023-11-30T15:34:11.505Z,66.57
2023-11-30T15:36:46.340Z,60.17
2023-11-30T15:39:23.580Z,61.57
2023-11-30T15:41:57.219Z,58.37
2023-11-30T15:44:30.433Z,61.10
2023-11-30T15:47:04.146Z,61.10
2023-11-30T15:49:37.734Z,60.83
2023-11-30T15:52:11.743Z,58.70
2023-11-30T15:54:45.299Z,54.63
2023-11-30T15:57:18.798Z,56.03
2023-11-30T15:59:52.775Z,63.40
2023-11-30T16:02:27.155Z,68.03
2023-11-30T16:05:00.540Z,67.60
2023-11-30T16:07:35.631Z,76.60
2023-11-30T16:10:10.414Z,81.83
2023-11-30T16:12:43.995Z,85.60
2023-11-30T16:15:20.270Z,82.33
2023-11-30T16:17:55.336Z,82.30
2023-11-30T16:20:32.399Z,82.70
2023-11-30T16:23:06.536Z,83.27
2023-11-30T16:25:43.232Z,78.50
2023-11-30T16:28:22.241Z,74.63
2023-11-30T16:30:57.348Z,77.03
2023-11-30T16:33:31.080Z,66.67
2023-11-30T16:36:04.925Z,66.50
2023-11-30T16:38:38.612Z,68.97
2023-11-30T16:41:12.900Z,71.40
2023-11-30T16:43:46.267Z,74.23
2023-11-30T16:46:19.837Z,63.37
2023-11-30T16:49:00.411Z,65.57
2023-11-30T16:51:34.510Z,66.83
2023-11-30T16:54:08.997Z,64.70
2023-11-30T16:56:43.101Z,63.57
2023-11-30T16:59:17.702Z,65.83
2023-11-30T17:01:51.142Z,69.07
2023-11-30T17:04:24.845Z,66.17
2023-11-30T17:06:58.432Z,65.43
2023-11-30T17:09:32.213Z,59.20
2023-11-30T17:12:06.126Z,66.03
2023-11-30T17:14:39.760Z,62.20
2023-11-30T17:17:13.129Z,65.03
2023-11-30T17:19:46.674Z,62.80
2023-11-30T17:22:20.401Z,61.47
2023-11-30T17:24:53.802Z,64.23
2023-11-30T17:27:27.294Z,61.47
2023-11-30T17:30:01.862Z,64.63
2023-11-30T17:32:35.373Z,67.37
2023-11-30T17:35:10.694Z,71.53
2023-11-30T17:37:43.985Z,69.53
2023-11-30T17:40:18.670Z,74.63
2023-11-30T17:42:52.485Z,81.47
2023-11-30T17:45:25.717Z,68.77
2023-11-30T17:47:59.045Z,65.30
2023-11-30T17:50:32.529Z,82.03
2023-11-30T17:53:06.646Z,70.20
2023-11-30T17:55:39.985Z,66.40
2023-11-30T17:58:13.531Z,68.50
2023-11-30T18:00:47.065Z,66.33
2023-11-30T18:03:20.586Z,62.43
2023-11-30T18:05:54.337Z,62.10
2023-11-30T18:08:27.861Z,61.67
2023-11-30T18:11:01.177Z,60.57
2023-11-30T18:13:37.243Z,54.00
2023-11-30T18:16:12.591Z,60.63
2023-11-30T18:18:46.661Z,57.23
2023-11-30T18:21:20.663Z,57.40
2023-11-30T18:23:54.643Z,63.00
2023-11-30T18:26:28.327Z,58.13
2023-11-30T18:29:01.343Z,58.80
2023-11-30T18:31:35.289Z,64.60
2023-11-30T18:34:09.290Z,73.35
2023-11-30T18:36:42.474Z,72.27
2023-11-30T18:39:16.909Z,71.60
2023-11-30T18:41:50.383Z,67.27
2023-11-30T18:44:23.712Z,57.80
2023-11-30T18:46:58.215Z,59.33
2023-11-30T18:49:31.673Z,53.43
2023-11-30T18:52:05.858Z,50.73
2023-11-30T18:54:39.196Z,54.93
2023-11-30T18:57:14.778Z,53.30
2023-11-30T18:59:48.380Z,52.70
2023-11-30T19:02:22.053Z,56.57
2023-11-30T19:04:56.618Z,55.63
2023-11-30T19:07:31.463Z,53.33
2023-11-30T19:10:05.956Z,51.65
2023-11-30T19:12:39.844Z,51.50
2023-11-30T19:15:14.620Z,50.67
2023-11-30T19:17:49.986Z,54.23
2023-11-30T19:20:23.509Z,55.00
2023-11-30T19:22:57.271Z,55.17
2023-11-30T19:25:30.480Z,53.50
2023-11-30T19:28:03.937Z,54.27
2023-11-30T19:30:37.793Z,55.60
2023-11-30T19:33:12.299Z,52.57
2023-11-30T19:35:45.713Z,50.37
2023-11-30T19:38:19.591Z,49.30
2023-11-30T19:40:54.026Z,50.67
2023-11-30T19:43:28.084Z,51.37
2023-11-30T19:46:03.242Z,54.00
2023-11-30T19:48:37.280Z,50.97
2023-11-30T19:51:16.274Z,51.80
2023-11-30T19:53:49.715Z,57.20
2023-11-30T19:56:23.705Z,54.77
2023-11-30T19:58:57.089Z,55.73
2023-11-30T20:01:30.601Z,58.17
2023-11-30T20:04:04.651Z,62.57
2023-11-30T20:06:41.355Z,57.83
2023-11-30T20:09:14.938Z,60.33
2023-11-30T20:11:48.378Z,55.85
2023-11-30T20:14:21.831Z,58.80
2023-11-30T20:16:55.254Z,52.73
2023-11-30T20:19:28.632Z,53.57
2023-11-30T20:22:02.271Z,57.95
2023-11-30T20:24:36.441Z,53.10
2023-11-30T20:27:11.410Z,52.67
2023-11-30T20:29:45.089Z,52.50
2023-11-30T20:32:18.328Z,51.27
2023-11-30T20:34:51.630Z,53.87
2023-11-30T20:37:26.188Z,49.90
2023-11-30T20:39:59.948Z,50.07
2023-11-30T20:42:33.698Z,50.33
2023-11-30T20:45:08.123Z,53.80
2023-11-30T20:47:41.520Z,50.17
2023-11-30T20:50:15.459Z,52.60
2023-11-30T20:52:51.857Z,52.97
2023-11-30T20:55:26.161Z,53.50
2023-11-30T20:57:59.948Z,54.93
2023-11-30T21:00:33.547Z,49.87
2023-11-30T21:03:08.362Z,55.53
2023-11-30T21:05:41.777Z,57.67
2023-11-30T21:08:15.191Z,56.37
2023-11-30T21:10:48.573Z,55.27
2023-11-30T21:13:22.888Z,55.33
2023-11-30T21:15:55.849Z,54.03
2023-11-30T21:18:29.760Z,59.27
2023-11-30T21:21:03.594Z,54.30
2023-11-30T21:23:39.228Z,57.77
2023-11-30T21:26:13.230Z,57.57
2023-11-30T21:28:46.646Z,57.63
2023-11-30T21:31:21.306Z,58.17
2023-11-30T21:33:54.670Z,59.00
2023-11-30T21:36:28.219Z,59.70
2023-11-30T21:39:02.196Z,67.10
2023-11-30T21:41:35.429Z,64.97
2023-11-30T21:44:09.605Z,67.60
2023-11-30T21:46:43.392Z,67.47
2023-11-30T21:49:19.890Z,69.97
2023-11-30T21:51:53.524Z,72.77
2023-11-30T21:54:26.683Z,78.03
2023-11-30T21:57:00.234Z,78.10
2023-11-30T21:59:37.655Z,76.10
2023-11-30T22:02:11.585Z,78.00
2023-11-30T22:04:45.256Z,80.87
2023-11-30T22:07:18.782Z,78.97
2023-11-30T22:09:52.555Z,82.17
2023-11-30T22:12:26.252Z,75.97
2023-11-30T22:14:59.801Z,81.97
2023-11-30T22:17:33.459Z,81.00
2023-11-30T22:20:10.059Z,75.00
2023-11-30T22:22:43.812Z,81.60
2023-11-30T22:25:17.875Z,82.83
2023-11-30T22:27:51.463Z,81.87
2023-11-30T22:30:25.609Z,81.47
2023-11-30T22:32:59.073Z,84.50
2023-11-30T22:35:32.578Z,86.10
2023-11-30T22:38:06.081Z,87.87
2023-11-30T22:40:39.629Z,88.93
2023-11-30T22:43:13.153Z,79.00
2023-11-30T22:45:46.856Z,79.63
2023-11-30T22:48:20.309Z,76.83
2023-11-30T22:50:53.984Z,78.57
2023-11-30T22:53:27.435Z,83.13
2023-11-30T22:56:00.742Z,74.60
2023-11-30T22:58:34.336Z,79.07
2023-11-30T23:01:09.170Z,78.90
2023-11-30T23:03:44.896Z,81.30
2023-11-30T23:06:19.150Z,75.77
2023-11-30T23:08:52.542Z,78.27
2023-11-30T23:11:27.009Z,73.20
2023-11-30T23:14:00.551Z,80.53
2023-11-30T23:16:34.148Z,81.80
2023-11-30T23:19:08.929Z,77.23
2023-11-30T23:21:43.629Z,78.83
2023-11-30T23:24:25.677Z,76.43
2023-11-30T23:27:02.832Z,77.43
2023-11-30T23:29:40.754Z,77.70
2023-11-30T23:32:14.430Z,77.77
2023-11-30T23:34:47.848Z,80.93
2023-11-30T23:37:21.393Z,88.70
2023-11-30T23:39:55.637Z,93.87
2023-11-30T23:42:29.062Z,90.07
2023-11-30T23:45:03.350Z,81.73
2023-11-30T23:47:36.879Z,81.63
2023-11-30T23:50:13.350Z,83.03
2023-11-30T23:52:47.054Z,73.00
2023-11-30T23:55:21.364Z,71.70
2023-11-30T23:57:54.698Z,75.27
